createdAt,value
2018-03-04T00:00:02.877Z,781.72
2018-03-04T00:00:06.888Z,781.76
2018-03-04T00:00:10.793Z,781.72
2018-03-04T00:00:15.021Z,781.75
2018-03-04T00:00:19.143Z,781.74
2018-03-04T00:00:23.406Z,781.7
2018-03-04T00:00:27.739Z,781.71
2018-03-04T00:00:31.753Z,781.72
2018-03-04T00:00:35.661Z,781.72
2018-03-04T00:00:39.563Z,781.73
2018-03-04T00:00:44.029Z,781.72
2018-03-04T00:00:48.147Z,781.72
2018-03-04T00:00:52.163Z,781.72
2018-03-04T00:00:56.270Z,781.71
2018-03-04T00:01:00.401Z,781.75
2018-03-04T00:01:04.397Z,781.7
2018-03-04T00:01:08.732Z,781.7
2018-03-04T00:01:12.841Z,781.7
2018-03-04T00:01:16.740Z,781.71
2018-03-04T00:01:20.754Z,781.7
2018-03-04T00:01:24.875Z,781.73
2018-03-04T00:01:29.094Z,781.71
2018-03-04T00:01:33.208Z,781.71
2018-03-04T00:01:37.426Z,781.7
2018-03-04T00:01:41.651Z,781.72
2018-03-04T00:01:45.767Z,781.7
2018-03-04T00:01:49.985Z,781.73
2018-03-04T00:01:53.895Z,781.69
2018-03-04T00:01:58.007Z,781.73
2018-03-04T00:02:02.124Z,781.7
2018-03-04T00:02:06.136Z,781.7
2018-03-04T00:02:10.143Z,781.69
2018-03-04T00:02:14.264Z,781.73
2018-03-04T00:02:18.274Z,781.69
2018-03-04T00:02:22.278Z,781.71
2018-03-04T00:02:26.338Z,781.71
2018-03-04T00:02:30.446Z,781.73
2018-03-04T00:02:34.558Z,781.68
2018-03-04T00:02:38.459Z,781.68
2018-03-04T00:02:42.469Z,781.71
2018-03-04T00:02:46.466Z,781.71
2018-03-04T00:02:50.478Z,781.69
2018-03-04T00:02:54.492Z,781.71
2018-03-04T00:02:58.610Z,781.72
2018-03-04T00:03:02.667Z,781.7
2018-03-04T00:03:06.673Z,781.73
2018-03-04T00:03:10.675Z,781.71
2018-03-04T00:03:14.802Z,781.71
2018-03-04T00:03:18.819Z,781.68
2018-03-04T00:03:22.939Z,781.71
2018-03-04T00:03:27.050Z,781.7
2018-03-04T00:03:31.158Z,781.7
2018-03-04T00:03:35.267Z,781.71
2018-03-04T00:03:39.270Z,781.69
2018-03-04T00:03:43.386Z,781.71
2018-03-04T00:03:47.717Z,781.69
2018-03-04T00:03:51.721Z,781.7
2018-03-04T00:03:55.941Z,781.71
2018-03-04T00:03:59.845Z,781.68
2018-03-04T00:04:03.952Z,781.69
2018-03-04T00:04:08.168Z,781.67
2018-03-04T00:04:12.297Z,781.68
2018-03-04T00:04:16.823Z,781.71
2018-03-04T00:04:20.728Z,781.7
2018-03-04T00:04:24.841Z,781.69
2018-03-04T00:04:28.855Z,781.68
2018-03-04T00:04:33.078Z,781.69
2018-03-04T00:04:37.192Z,781.66
2018-03-04T00:04:41.306Z,781.65
2018-03-04T00:04:45.418Z,781.72
2018-03-04T00:04:49.653Z,781.7
2018-03-04T00:04:53.878Z,781.67
2018-03-04T00:04:57.880Z,781.68
2018-03-04T00:05:02.024Z,781.67
2018-03-04T00:05:06.258Z,781.71
2018-03-04T00:05:10.377Z,781.7
2018-03-04T00:05:14.392Z,781.69
2018-03-04T00:05:18.501Z,781.71
2018-03-04T00:05:22.721Z,781.71
2018-03-04T00:05:26.942Z,781.69
2018-03-04T00:05:31.055Z,781.69
2018-03-04T00:05:35.274Z,781.7
2018-03-04T00:05:39.275Z,781.71
2018-03-04T00:05:43.398Z,781.69
2018-03-04T00:05:47.295Z,781.67
2018-03-04T00:05:51.306Z,781.71
2018-03-04T00:05:55.541Z,781.71
2018-03-04T00:05:59.653Z,781.73
2018-03-04T00:06:03.935Z,781.72
2018-03-04T00:06:08.044Z,781.68
2018-03-04T00:06:12.045Z,781.72
2018-03-04T00:06:16.162Z,781.7
2018-03-04T00:06:20.061Z,781.7
2018-03-04T00:06:24.394Z,781.67
2018-03-04T00:06:28.501Z,781.7
2018-03-04T00:06:32.613Z,781.69
2018-03-04T00:06:36.897Z,781.7
2018-03-04T00:06:40.900Z,781.67
2018-03-04T00:06:44.797Z,781.64
2018-03-04T00:06:48.854Z,781.64
2018-03-04T00:06:53.081Z,781.67
2018-03-04T00:06:57.191Z,781.67
2018-03-04T00:07:01.300Z,781.66
2018-03-04T00:07:05.468Z,781.68
2018-03-04T00:07:09.477Z,781.69
2018-03-04T00:07:13.589Z,781.67
2018-03-04T00:07:17.813Z,781.68
2018-03-04T00:07:21.710Z,781.66
2018-03-04T00:07:25.939Z,781.69
2018-03-04T00:07:29.728Z,781.68
2018-03-04T00:07:33.762Z,781.68
2018-03-04T00:07:37.878Z,781.63
2018-03-04T00:07:42.103Z,781.67
2018-03-04T00:07:46.222Z,781.66
2018-03-04T00:07:50.233Z,781.65
2018-03-04T00:07:54.130Z,781.68
2018-03-04T00:07:58.353Z,781.66
2018-03-04T00:08:02.355Z,781.65
2018-03-04T00:08:06.470Z,781.67
2018-03-04T00:08:10.484Z,781.64
2018-03-04T00:08:14.493Z,781.66
2018-03-04T00:08:18.500Z,781.66
2018-03-04T00:08:22.522Z,781.66
2018-03-04T00:08:27.089Z,781.67
2018-03-04T00:08:31.355Z,781.66
2018-03-04T00:08:35.591Z,781.67
2018-03-04T00:08:39.596Z,781.66
2018-03-04T00:08:43.865Z,781.62
2018-03-04T00:08:47.926Z,781.65
2018-03-04T00:08:51.826Z,781.66
2018-03-04T00:08:55.942Z,781.66
2018-03-04T00:08:59.840Z,781.64
2018-03-04T00:09:03.795Z,781.66
2018-03-04T00:09:08.023Z,781.66
2018-03-04T00:09:12.281Z,781.69
2018-03-04T00:09:16.185Z,781.68
2018-03-04T00:09:20.192Z,781.66
2018-03-04T00:09:24.213Z,781.63
2018-03-04T00:09:28.326Z,781.67
2018-03-04T00:09:32.451Z,781.67
2018-03-04T00:09:36.572Z,781.65
2018-03-04T00:09:40.735Z,781.65
2018-03-04T00:09:45.063Z,781.67
2018-03-04T00:09:49.176Z,781.67
2018-03-04T00:09:53.397Z,781.68
2018-03-04T00:09:57.569Z,781.66
2018-03-04T00:10:01.699Z,781.63
2018-03-04T00:10:05.913Z,781.6
2018-03-04T00:10:10.034Z,781.65
2018-03-04T00:10:13.935Z,781.64
2018-03-04T00:10:17.834Z,781.66
2018-03-04T00:10:21.737Z,781.66
2018-03-04T00:10:25.853Z,781.63
2018-03-04T00:10:29.859Z,781.66
2018-03-04T00:10:34.081Z,781.67
2018-03-04T00:10:38.087Z,781.67
2018-03-04T00:10:42.220Z,781.65
2018-03-04T00:10:46.118Z,781.63
2018-03-04T00:10:50.132Z,781.64
2018-03-04T00:10:54.243Z,781.67
2018-03-04T00:10:58.375Z,781.64
2018-03-04T00:11:02.383Z,781.66
2018-03-04T00:11:06.393Z,781.63
2018-03-04T00:11:10.397Z,781.65
2018-03-04T00:11:14.413Z,781.66
2018-03-04T00:11:18.429Z,781.67
2018-03-04T00:11:22.652Z,781.62
2018-03-04T00:11:26.766Z,781.62
2018-03-04T00:11:30.982Z,781.59
2018-03-04T00:11:35.101Z,781.62
2018-03-04T00:11:39.000Z,781.62
2018-03-04T00:11:43.235Z,781.63
2018-03-04T00:11:47.356Z,781.66
2018-03-04T00:11:51.470Z,781.67
2018-03-04T00:11:55.703Z,781.69
2018-03-04T00:11:59.816Z,781.67
2018-03-04T00:12:03.942Z,781.63
2018-03-04T00:12:08.054Z,781.64
2018-03-04T00:12:12.061Z,781.67
2018-03-04T00:12:16.170Z,781.61
2018-03-04T00:12:20.285Z,781.63
2018-03-04T00:12:24.293Z,781.64
2018-03-04T00:12:28.088Z,781.63
2018-03-04T00:12:32.416Z,781.61
2018-03-04T00:12:36.526Z,781.61
2018-03-04T00:12:40.899Z,781.61
2018-03-04T00:12:45.139Z,781.63
2018-03-04T00:12:49.255Z,781.65
2018-03-04T00:12:53.368Z,781.65
2018-03-04T00:12:57.264Z,781.63
2018-03-04T00:13:01.500Z,781.61
2018-03-04T00:13:05.395Z,781.63
2018-03-04T00:13:09.621Z,781.65
2018-03-04T00:13:13.629Z,781.64
2018-03-04T00:13:17.846Z,781.63
2018-03-04T00:13:22.099Z,781.65
2018-03-04T00:13:26.107Z,781.63
2018-03-04T00:13:30.336Z,781.65
2018-03-04T00:13:34.675Z,781.62
2018-03-04T00:13:38.574Z,781.61
2018-03-04T00:13:42.587Z,781.63
2018-03-04T00:13:46.590Z,781.64
2018-03-04T00:13:50.719Z,781.63
2018-03-04T00:13:54.937Z,781.62
2018-03-04T00:13:58.942Z,781.63
2018-03-04T00:14:03.353Z,781.62
2018-03-04T00:14:07.783Z,781.63
2018-03-04T00:14:11.803Z,781.62
2018-03-04T00:14:15.700Z,781.66
2018-03-04T00:14:19.499Z,781.61
2018-03-04T00:14:23.615Z,781.62
2018-03-04T00:14:27.648Z,781.65
2018-03-04T00:14:31.873Z,781.62
2018-03-04T00:14:35.991Z,781.62
2018-03-04T00:14:40.211Z,781.65
2018-03-04T00:14:44.228Z,781.63
2018-03-04T00:14:48.345Z,781.66
2018-03-04T00:14:52.351Z,781.63
2018-03-04T00:14:56.356Z,781.62
2018-03-04T00:15:00.468Z,781.62
2018-03-04T00:15:04.480Z,781.63
2018-03-04T00:15:08.530Z,781.63
2018-03-04T00:15:12.431Z,781.61
2018-03-04T00:15:16.658Z,781.58
2018-03-04T00:15:20.695Z,781.59
2018-03-04T00:15:24.921Z,781.63
2018-03-04T00:15:29.028Z,781.65
2018-03-04T00:15:33.255Z,781.61
2018-03-04T00:15:37.263Z,781.66
2018-03-04T00:15:41.266Z,781.61
2018-03-04T00:15:45.491Z,781.62
2018-03-04T00:15:49.495Z,781.61
2018-03-04T00:15:53.725Z,781.59
2018-03-04T00:15:58.053Z,781.54
2018-03-04T00:16:02.060Z,781.58
2018-03-04T00:16:05.959Z,781.57
2018-03-04T00:16:10.412Z,781.62
2018-03-04T00:16:14.747Z,781.58
2018-03-04T00:16:18.863Z,781.61
2018-03-04T00:16:23.235Z,781.57
2018-03-04T00:16:27.354Z,781.55
2018-03-04T00:16:31.473Z,781.58
2018-03-04T00:16:35.484Z,781.55
2018-03-04T00:16:39.709Z,781.57
2018-03-04T00:16:44.052Z,781.58
2018-03-04T00:16:48.064Z,781.6
2018-03-04T00:16:52.071Z,781.58
2018-03-04T00:16:55.968Z,781.57
2018-03-04T00:16:59.967Z,781.61
2018-03-04T00:17:04.190Z,781.59
2018-03-04T00:17:08.303Z,781.6
2018-03-04T00:17:12.317Z,781.59
2018-03-04T00:17:16.546Z,781.62
2018-03-04T00:17:20.666Z,781.62
2018-03-04T00:17:24.788Z,781.62
2018-03-04T00:17:29.022Z,781.58
2018-03-04T00:17:33.137Z,781.57
2018-03-04T00:17:37.146Z,781.58
2018-03-04T00:17:40.821Z,781.59
2018-03-04T00:17:45.052Z,781.61
2018-03-04T00:17:49.382Z,781.63
2018-03-04T00:17:53.601Z,781.61
2018-03-04T00:17:57.707Z,781.58
2018-03-04T00:18:01.610Z,781.57
2018-03-04T00:18:05.925Z,781.59
2018-03-04T00:18:10.048Z,781.54
2018-03-04T00:18:14.172Z,781.52
2018-03-04T00:18:18.188Z,781.54
2018-03-04T00:18:22.084Z,781.52
2018-03-04T00:18:26.087Z,781.56
2018-03-04T00:18:30.203Z,781.53
2018-03-04T00:18:34.425Z,781.54
2018-03-04T00:18:38.536Z,781.53
2018-03-04T00:18:42.761Z,781.5
2018-03-04T00:18:47.012Z,781.56
2018-03-04T00:18:51.021Z,781.54
2018-03-04T00:18:55.032Z,781.57
2018-03-04T00:18:58.931Z,781.58
2018-03-04T00:19:03.346Z,781.57
2018-03-04T00:19:07.356Z,781.59
2018-03-04T00:19:11.360Z,781.58
2018-03-04T00:19:15.496Z,781.6
2018-03-04T00:19:19.619Z,781.61
2018-03-04T00:19:23.741Z,781.59
2018-03-04T00:19:27.750Z,781.61
2018-03-04T00:19:31.869Z,781.6
2018-03-04T00:19:35.990Z,781.58
2018-03-04T00:19:40.108Z,781.58
2018-03-04T00:19:44.231Z,781.57
2018-03-04T00:19:48.343Z,781.58
2018-03-04T00:19:52.558Z,781.58
2018-03-04T00:19:56.574Z,781.61
2018-03-04T00:20:00.583Z,781.6
2018-03-04T00:20:04.492Z,781.61
2018-03-04T00:20:08.603Z,781.61
2018-03-04T00:20:12.616Z,781.62
2018-03-04T00:20:16.841Z,781.55
2018-03-04T00:20:20.738Z,781.54
2018-03-04T00:20:25.070Z,781.55
2018-03-04T00:20:29.190Z,781.56
2018-03-04T00:20:33.190Z,781.53
2018-03-04T00:20:37.412Z,781.51
2018-03-04T00:20:41.526Z,781.55
2018-03-04T00:20:45.535Z,781.5
2018-03-04T00:20:49.650Z,781.5
2018-03-04T00:20:53.794Z,781.51
2018-03-04T00:20:57.918Z,781.6
2018-03-04T00:21:02.031Z,781.56
2018-03-04T00:21:05.930Z,781.58
2018-03-04T00:21:09.940Z,781.58
2018-03-04T00:21:14.050Z,781.59
2018-03-04T00:21:18.273Z,781.57
2018-03-04T00:21:22.284Z,781.6
2018-03-04T00:21:25.972Z,781.59
2018-03-04T00:21:29.873Z,781.59
2018-03-04T00:21:33.998Z,781.58
2018-03-04T00:21:38.009Z,781.59
2018-03-04T00:21:42.233Z,781.58
2018-03-04T00:21:46.458Z,781.58
2018-03-04T00:21:50.465Z,781.57
2018-03-04T00:21:54.577Z,781.57
2018-03-04T00:21:58.694Z,781.58
2018-03-04T00:22:02.819Z,781.58
2018-03-04T00:22:06.827Z,781.59
2018-03-04T00:22:10.724Z,781.57
2018-03-04T00:22:14.837Z,781.6
2018-03-04T00:22:18.955Z,781.6
2018-03-04T00:22:23.293Z,781.57
2018-03-04T00:22:27.405Z,781.61
2018-03-04T00:22:31.089Z,781.6
2018-03-04T00:22:35.206Z,781.61
2018-03-04T00:22:39.105Z,781.6
2018-03-04T00:22:43.109Z,781.6
2018-03-04T00:22:47.229Z,781.61
2018-03-04T00:22:51.344Z,781.64
2018-03-04T00:22:55.464Z,781.6
2018-03-04T00:22:59.586Z,781.58
2018-03-04T00:23:04.021Z,781.62
2018-03-04T00:23:08.134Z,781.62
2018-03-04T00:23:11.926Z,781.62
2018-03-04T00:23:16.045Z,781.6
2018-03-04T00:23:19.939Z,781.61
2018-03-04T00:23:23.951Z,781.61
2018-03-04T00:23:28.059Z,781.62
2018-03-04T00:23:32.181Z,781.59
2018-03-04T00:23:36.513Z,781.61
2018-03-04T00:23:40.638Z,781.61
2018-03-04T00:23:44.754Z,781.63
2018-03-04T00:23:49.080Z,781.61
2018-03-04T00:23:53.191Z,781.63
2018-03-04T00:23:57.318Z,781.63
2018-03-04T00:24:01.440Z,781.62
2018-03-04T00:24:05.446Z,781.6
2018-03-04T00:24:09.452Z,781.61
2018-03-04T00:24:13.675Z,781.62
2018-03-04T00:24:17.802Z,781.62
2018-03-04T00:24:21.808Z,781.64
2018-03-04T00:24:26.150Z,781.63
2018-03-04T00:24:30.277Z,781.64
2018-03-04T00:24:34.075Z,781.61
2018-03-04T00:24:38.403Z,781.62
2018-03-04T00:24:42.622Z,781.61
2018-03-04T00:24:46.839Z,781.63
2018-03-04T00:24:50.855Z,781.64
2018-03-04T00:24:55.195Z,781.65
2018-03-04T00:24:59.310Z,781.62
2018-03-04T00:25:03.310Z,781.62
2018-03-04T00:25:07.316Z,781.64
2018-03-04T00:25:11.544Z,781.63
2018-03-04T00:25:15.765Z,781.62
2018-03-04T00:25:19.989Z,781.62
2018-03-04T00:25:24.003Z,781.63
2018-03-04T00:25:28.229Z,781.65
2018-03-04T00:25:32.452Z,781.62
2018-03-04T00:25:36.674Z,781.6
2018-03-04T00:25:40.675Z,781.59
2018-03-04T00:25:44.899Z,781.6
2018-03-04T00:25:48.900Z,781.61
2018-03-04T00:25:52.802Z,781.57
2018-03-04T00:25:56.811Z,781.53
2018-03-04T00:26:00.918Z,781.56
2018-03-04T00:26:05.242Z,781.61
2018-03-04T00:26:09.576Z,781.6
2018-03-04T00:26:13.802Z,781.62
2018-03-04T00:26:17.915Z,781.59
2018-03-04T00:26:21.699Z,781.6
2018-03-04T00:26:25.813Z,781.61
2018-03-04T00:26:29.826Z,781.6
2018-03-04T00:26:37.858Z,781.58
2018-03-04T00:26:42.105Z,781.59
2018-03-04T00:26:46.112Z,781.56
2018-03-04T00:26:50.251Z,781.59
2018-03-04T00:26:54.260Z,781.56
2018-03-04T00:26:58.373Z,781.56
2018-03-04T00:27:02.489Z,781.58
2018-03-04T00:27:06.600Z,781.56
2018-03-04T00:27:10.604Z,781.55
2018-03-04T00:27:14.611Z,781.53
2018-03-04T00:27:18.613Z,781.54
2018-03-04T00:27:22.620Z,781.51
2018-03-04T00:27:26.627Z,781.45
2018-03-04T00:27:30.749Z,781.51
2018-03-04T00:27:34.758Z,781.54
2018-03-04T00:27:38.565Z,781.55
2018-03-04T00:27:42.912Z,781.56
2018-03-04T00:27:47.060Z,781.53
2018-03-04T00:27:51.072Z,781.55
2018-03-04T00:27:55.187Z,781.57
2018-03-04T00:27:59.192Z,781.54
2018-03-04T00:28:03.469Z,781.54
2018-03-04T00:28:07.483Z,781.55
2018-03-04T00:28:11.717Z,781.55
2018-03-04T00:28:15.727Z,781.56
2018-03-04T00:28:19.842Z,781.53
2018-03-04T00:28:23.855Z,781.51
2018-03-04T00:28:27.976Z,781.54
2018-03-04T00:28:32.091Z,781.53
2018-03-04T00:28:35.988Z,781.51
2018-03-04T00:28:39.998Z,781.53
2018-03-04T00:28:44.333Z,781.55
2018-03-04T00:28:48.452Z,781.51
2018-03-04T00:28:52.572Z,781.53
2018-03-04T00:28:56.575Z,781.52
2018-03-04T00:29:00.578Z,781.52
2018-03-04T00:29:04.896Z,781.5
2018-03-04T00:29:09.119Z,781.51
2018-03-04T00:29:13.122Z,781.53
2018-03-04T00:29:17.235Z,781.53
2018-03-04T00:29:21.342Z,781.52
2018-03-04T00:29:25.129Z,781.5
2018-03-04T00:29:29.253Z,781.49
2018-03-04T00:29:33.481Z,781.52
2018-03-04T00:29:37.593Z,781.46
2018-03-04T00:29:41.925Z,781.52
2018-03-04T00:29:45.932Z,781.51
2018-03-04T00:29:49.941Z,781.48
2018-03-04T00:29:53.944Z,781.4
2018-03-04T00:29:57.951Z,781.44
2018-03-04T00:30:01.741Z,781.44
2018-03-04T00:30:05.955Z,781.44
2018-03-04T00:30:09.847Z,781.42
2018-03-04T00:30:13.862Z,781.46
2018-03-04T00:30:18.023Z,781.5
2018-03-04T00:30:22.250Z,781.5
2018-03-04T00:30:26.269Z,781.47
2018-03-04T00:30:30.491Z,781.5
2018-03-04T00:30:34.505Z,781.46
2018-03-04T00:30:38.732Z,781.47
2018-03-04T00:30:42.954Z,781.46
2018-03-04T00:30:47.073Z,781.48
2018-03-04T00:30:51.208Z,781.43
2018-03-04T00:30:55.085Z,781.47
2018-03-04T00:30:58.988Z,781.47
2018-03-04T00:31:03.256Z,781.46
2018-03-04T00:31:07.482Z,781.44
2018-03-04T00:31:11.492Z,781.46
2018-03-04T00:31:15.765Z,781.48
2018-03-04T00:31:19.770Z,781.48
2018-03-04T00:31:24.102Z,781.45
2018-03-04T00:31:28.215Z,781.47
2018-03-04T00:31:32.330Z,781.49
2018-03-04T00:31:36.338Z,781.47
2018-03-04T00:31:40.448Z,781.49
2018-03-04T00:31:44.452Z,781.46
2018-03-04T00:31:48.571Z,781.44
2018-03-04T00:31:52.699Z,781.45
2018-03-04T00:31:56.488Z,781.42
2018-03-04T00:32:00.593Z,781.47
2018-03-04T00:32:04.698Z,781.46
2018-03-04T00:32:08.824Z,781.44
2018-03-04T00:32:12.939Z,781.47
2018-03-04T00:32:17.201Z,781.44
2018-03-04T00:32:21.106Z,781.45
2018-03-04T00:32:25.112Z,781.46
2018-03-04T00:32:29.228Z,781.46
2018-03-04T00:32:33.344Z,781.41
2018-03-04T00:32:37.568Z,781.41
2018-03-04T00:32:41.462Z,781.43
2018-03-04T00:32:45.539Z,781.41
2018-03-04T00:32:49.762Z,781.42
2018-03-04T00:32:53.568Z,781.46
2018-03-04T00:32:57.784Z,781.41
2018-03-04T00:33:01.987Z,781.36
2018-03-04T00:33:06.106Z,781.41
2018-03-04T00:33:10.112Z,781.38
2018-03-04T00:33:14.012Z,781.44
2018-03-04T00:33:18.018Z,781.37
2018-03-04T00:33:22.246Z,781.41
2018-03-04T00:33:26.148Z,781.36
2018-03-04T00:33:30.380Z,781.37
2018-03-04T00:33:34.488Z,781.41
2018-03-04T00:33:38.493Z,781.4
2018-03-04T00:33:42.497Z,781.35
2018-03-04T00:33:46.607Z,781.38
2018-03-04T00:33:50.939Z,781.39
2018-03-04T00:33:54.945Z,781.38
2018-03-04T00:33:59.070Z,781.38
2018-03-04T00:34:03.259Z,781.4
2018-03-04T00:34:07.155Z,781.36
2018-03-04T00:34:11.390Z,781.33
2018-03-04T00:34:15.517Z,781.35
2018-03-04T00:34:19.524Z,781.33
2018-03-04T00:34:23.530Z,781.37
2018-03-04T00:34:27.642Z,781.33
2018-03-04T00:34:31.648Z,781.38
2018-03-04T00:34:35.650Z,781.32
2018-03-04T00:34:39.764Z,781.32
2018-03-04T00:34:43.985Z,781.3
2018-03-04T00:34:48.096Z,781.32
2018-03-04T00:34:52.312Z,781.32
2018-03-04T00:34:56.543Z,781.29
2018-03-04T00:35:00.769Z,781.31
2018-03-04T00:35:04.933Z,781.32
2018-03-04T00:35:09.166Z,781.32
2018-03-04T00:35:13.390Z,781.32
2018-03-04T00:35:17.619Z,781.28
2018-03-04T00:35:21.733Z,781.25
2018-03-04T00:35:25.842Z,781.28
2018-03-04T00:35:29.846Z,781.29
2018-03-04T00:35:33.956Z,781.29
2018-03-04T00:35:37.751Z,781.27
2018-03-04T00:35:41.755Z,781.26
2018-03-04T00:35:45.768Z,781.27
2018-03-04T00:35:49.791Z,781.23
2018-03-04T00:35:54.033Z,781.24
2018-03-04T00:35:58.045Z,781.23
2018-03-04T00:36:02.064Z,781.27
2018-03-04T00:36:06.179Z,781.26
2018-03-04T00:36:10.300Z,781.23
2018-03-04T00:36:14.409Z,781.21
2018-03-04T00:36:18.425Z,781.24
2018-03-04T00:36:22.532Z,781.23
2018-03-04T00:36:26.802Z,781.23
2018-03-04T00:36:30.916Z,781.22
2018-03-04T00:36:35.246Z,781.23
2018-03-04T00:36:39.360Z,781.19
2018-03-04T00:36:43.594Z,781.22
2018-03-04T00:36:47.495Z,781.21
2018-03-04T00:36:51.718Z,781.23
2018-03-04T00:36:55.721Z,781.19
2018-03-04T00:36:59.614Z,781.18
2018-03-04T00:37:03.881Z,781.21
2018-03-04T00:37:08.003Z,781.22
2018-03-04T00:37:12.007Z,781.17
2018-03-04T00:37:16.028Z,781.18
2018-03-04T00:37:20.144Z,781.18
2018-03-04T00:37:24.255Z,781.18
2018-03-04T00:37:28.045Z,781.17
2018-03-04T00:37:32.048Z,781.18
2018-03-04T00:37:36.059Z,781.18
2018-03-04T00:37:40.211Z,781.18
2018-03-04T00:37:44.225Z,781.16
2018-03-04T00:37:48.227Z,781.16
2018-03-04T00:37:52.247Z,781.15
2018-03-04T00:37:56.362Z,781.16
2018-03-04T00:38:00.267Z,781.16
2018-03-04T00:38:04.614Z,781.17
2018-03-04T00:38:08.727Z,781.17
2018-03-04T00:38:12.834Z,781.14
2018-03-04T00:38:16.737Z,781.15
2018-03-04T00:38:20.632Z,781.15
2018-03-04T00:38:24.743Z,781.12
2018-03-04T00:38:28.641Z,781.17
2018-03-04T00:38:32.863Z,781.12
2018-03-04T00:38:36.972Z,781.12
2018-03-04T00:38:41.187Z,781.15
2018-03-04T00:38:45.410Z,781.14
2018-03-04T00:38:49.528Z,781.11
2018-03-04T00:38:53.642Z,781.14
2018-03-04T00:38:57.436Z,781.11
2018-03-04T00:39:01.440Z,781.11
2018-03-04T00:39:05.559Z,781.09
2018-03-04T00:39:09.609Z,781.1
2018-03-04T00:39:13.469Z,781.09
2018-03-04T00:39:17.690Z,781.06
2018-03-04T00:39:21.588Z,781.1
2018-03-04T00:39:25.596Z,781.07
2018-03-04T00:39:29.602Z,781.07
2018-03-04T00:39:33.727Z,781.05
2018-03-04T00:39:37.732Z,781.07
2018-03-04T00:39:41.953Z,781.09
2018-03-04T00:39:45.959Z,781.05
2018-03-04T00:39:50.070Z,781.07
2018-03-04T00:39:54.081Z,781.04
2018-03-04T00:39:58.086Z,781.04
2018-03-04T00:40:02.210Z,781.08
2018-03-04T00:40:06.427Z,781.06
2018-03-04T00:40:10.441Z,781.07
2018-03-04T00:40:14.447Z,781.05
2018-03-04T00:40:18.353Z,781.07
2018-03-04T00:40:22.365Z,781.02
2018-03-04T00:40:26.698Z,781.04
2018-03-04T00:40:30.703Z,781.03
2018-03-04T00:40:35.039Z,781
2018-03-04T00:40:39.150Z,781.04
2018-03-04T00:40:43.365Z,781.02
2018-03-04T00:40:47.258Z,781
2018-03-04T00:40:51.268Z,781
2018-03-04T00:40:55.268Z,781
2018-03-04T00:40:59.488Z,780.98
2018-03-04T00:41:03.598Z,781.01
2018-03-04T00:41:07.834Z,780.99
2018-03-04T00:41:11.624Z,781.03
2018-03-04T00:41:15.989Z,781.01
2018-03-04T00:41:19.887Z,781.01
2018-03-04T00:41:24.111Z,781.01
2018-03-04T00:41:28.231Z,781.02
2018-03-04T00:41:32.349Z,781
2018-03-04T00:41:36.454Z,781.01
2018-03-04T00:41:40.253Z,781
2018-03-04T00:41:44.264Z,781.01
2018-03-04T00:41:48.381Z,780.98
2018-03-04T00:41:52.495Z,781.01
2018-03-04T00:41:56.608Z,780.92
2018-03-04T00:42:00.947Z,781
2018-03-04T00:42:05.054Z,780.94
2018-03-04T00:42:09.059Z,780.96
2018-03-04T00:42:13.174Z,780.97
2018-03-04T00:42:17.234Z,780.99
2018-03-04T00:42:21.466Z,781.03
2018-03-04T00:42:25.707Z,781.01
2018-03-04T00:42:30.100Z,781.01
2018-03-04T00:42:34.338Z,780.97
2018-03-04T00:42:38.671Z,780.99
2018-03-04T00:42:43.002Z,780.94
2018-03-04T00:42:47.227Z,780.97
2018-03-04T00:42:51.568Z,780.95
2018-03-04T00:42:55.905Z,780.98
2018-03-04T00:43:00.141Z,780.98
2018-03-04T00:43:04.257Z,780.97
2018-03-04T00:43:08.164Z,780.96
2018-03-04T00:43:12.168Z,780.96
2018-03-04T00:43:16.281Z,780.96
2018-03-04T00:43:20.398Z,780.96
2018-03-04T00:43:24.296Z,780.95
2018-03-04T00:43:28.519Z,780.97
2018-03-04T00:43:32.631Z,780.92
2018-03-04T00:43:36.529Z,780.98
2018-03-04T00:43:40.542Z,780.97
2018-03-04T00:43:44.650Z,780.95
2018-03-04T00:43:48.655Z,780.95
2018-03-04T00:43:52.774Z,780.93
2018-03-04T00:43:56.882Z,780.95
2018-03-04T00:44:00.884Z,780.97
2018-03-04T00:44:05.368Z,780.96
2018-03-04T00:44:09.523Z,780.93
2018-03-04T00:44:13.742Z,780.91
2018-03-04T00:44:17.861Z,780.92
2018-03-04T00:44:21.759Z,780.93
2018-03-04T00:44:26.038Z,780.96
2018-03-04T00:44:30.042Z,780.96
2018-03-04T00:44:34.150Z,780.93
2018-03-04T00:44:38.488Z,780.94
2018-03-04T00:44:42.635Z,780.92
2018-03-04T00:44:46.968Z,780.94
2018-03-04T00:44:50.868Z,780.91
2018-03-04T00:44:54.767Z,780.89
2018-03-04T00:44:58.567Z,780.89
2018-03-04T00:45:02.576Z,780.89
2018-03-04T00:45:06.476Z,780.85
2018-03-04T00:45:10.700Z,780.88
2018-03-04T00:45:14.917Z,780.89
2018-03-04T00:45:19.026Z,780.86
2018-03-04T00:45:23.244Z,780.91
2018-03-04T00:45:27.469Z,780.86
2018-03-04T00:45:31.474Z,780.9
2018-03-04T00:45:35.474Z,780.87
2018-03-04T00:45:39.587Z,780.9
2018-03-04T00:45:43.807Z,780.91
2018-03-04T00:45:47.812Z,780.91
2018-03-04T00:45:51.605Z,780.96
2018-03-04T00:45:55.834Z,780.93
2018-03-04T00:46:00.064Z,780.93
2018-03-04T00:46:04.543Z,780.87
2018-03-04T00:46:08.765Z,780.87
2018-03-04T00:46:12.879Z,780.87
2018-03-04T00:46:17.100Z,780.87
2018-03-04T00:46:21.215Z,780.88
2018-03-04T00:46:25.324Z,780.95
2018-03-04T00:46:29.549Z,780.92
2018-03-04T00:46:33.553Z,780.92
2018-03-04T00:46:37.824Z,780.91
2018-03-04T00:46:41.832Z,780.95
2018-03-04T00:46:46.179Z,780.93
2018-03-04T00:46:50.193Z,780.94
2018-03-04T00:46:54.315Z,780.94
2018-03-04T00:46:58.328Z,780.91
2018-03-04T00:47:02.684Z,780.9
2018-03-04T00:47:06.904Z,780.92
2018-03-04T00:47:11.031Z,780.88
2018-03-04T00:47:15.153Z,780.89
2018-03-04T00:47:19.273Z,780.89
2018-03-04T00:47:23.391Z,780.91
2018-03-04T00:47:27.503Z,780.9
2018-03-04T00:47:31.615Z,780.88
2018-03-04T00:47:35.840Z,780.91
2018-03-04T00:47:39.742Z,780.91
2018-03-04T00:47:43.963Z,780.89
2018-03-04T00:47:47.858Z,780.89
2018-03-04T00:47:51.758Z,780.91
2018-03-04T00:47:55.873Z,780.9
2018-03-04T00:47:59.988Z,780.93
2018-03-04T00:48:04.434Z,780.91
2018-03-04T00:48:08.650Z,780.92
2018-03-04T00:48:12.659Z,780.9
2018-03-04T00:48:16.878Z,780.91
2018-03-04T00:48:21.003Z,780.9
2018-03-04T00:48:24.995Z,780.9
2018-03-04T00:48:28.892Z,780.9
2018-03-04T00:48:32.890Z,780.89
2018-03-04T00:48:37.121Z,780.89
2018-03-04T00:48:41.021Z,780.92
2018-03-04T00:48:45.144Z,780.9
2018-03-04T00:48:48.936Z,780.87
2018-03-04T00:48:52.940Z,780.91
2018-03-04T00:48:57.051Z,780.91
2018-03-04T00:49:01.177Z,780.91
2018-03-04T00:49:05.597Z,780.92
2018-03-04T00:49:09.613Z,780.86
2018-03-04T00:49:13.612Z,780.87
2018-03-04T00:49:17.949Z,780.89
2018-03-04T00:49:21.954Z,780.91
2018-03-04T00:49:25.850Z,780.92
2018-03-04T00:49:29.866Z,780.89
2018-03-04T00:49:33.980Z,780.89
2018-03-04T00:49:38.310Z,780.9
2018-03-04T00:49:42.206Z,780.89
2018-03-04T00:49:46.316Z,780.91
2018-03-04T00:49:50.100Z,780.89
2018-03-04T00:49:54.209Z,780.87
2018-03-04T00:49:58.120Z,780.85
2018-03-04T00:50:02.436Z,780.87
2018-03-04T00:50:06.780Z,780.89
2018-03-04T00:50:10.797Z,780.9
2018-03-04T00:50:15.026Z,780.9
2018-03-04T00:50:19.035Z,780.9
2018-03-04T00:50:23.261Z,780.89
2018-03-04T00:50:27.386Z,780.88
2018-03-04T00:50:31.310Z,780.89
2018-03-04T00:50:35.423Z,780.87
2018-03-04T00:50:39.541Z,780.89
2018-03-04T00:50:43.330Z,780.85
2018-03-04T00:50:47.448Z,780.88
2018-03-04T00:50:51.452Z,780.88
2018-03-04T00:50:55.455Z,780.9
2018-03-04T00:50:59.143Z,780.88
2018-03-04T00:51:03.602Z,780.82
2018-03-04T00:51:07.503Z,780.78
2018-03-04T00:51:11.509Z,780.84
2018-03-04T00:51:15.411Z,780.88
2018-03-04T00:51:19.537Z,780.88
2018-03-04T00:51:23.652Z,780.88